createdAt,value
2018-03-14T00:00:16.297Z,0
2018-03-14T00:01:17.002Z,0
2018-03-14T00:02:18.984Z,0
2018-03-14T00:03:21.231Z,0
2018-03-14T00:04:23.534Z,0
2018-03-14T00:05:27.712Z,0
2018-03-14T00:06:30.770Z,0
2018-03-14T00:07:33.100Z,0
2018-03-14T00:08:36.798Z,0
2018-03-14T00:09:37.158Z,0
2018-03-14T00:10:40.418Z,0
2018-03-14T00:11:41.731Z,0
2018-03-14T00:12:44.306Z,0
2018-03-14T00:13:44.884Z,0
2018-03-14T00:14:48.798Z,0
2018-03-14T00:15:50.172Z,0
2018-03-14T00:16:52.886Z,0
2018-03-14T00:17:56.300Z,0
2018-03-14T00:18:59.801Z,0
2018-03-14T00:20:00.801Z,0
2018-03-14T00:21:02.017Z,0
2018-03-14T00:22:04.719Z,0
2018-03-14T00:23:08.448Z,0
2018-03-14T00:24:12.118Z,0
2018-03-14T00:25:15.495Z,0
2018-03-14T00:26:17.476Z,0
2018-03-14T00:27:19.462Z,0
2018-03-14T00:28:22.110Z,0
2018-03-14T00:29:26.097Z,0
2018-03-14T00:30:29.256Z,0
2018-03-14T00:31:32.961Z,0
2018-03-14T00:32:34.298Z,0
2018-03-14T00:33:37.087Z,0
2018-03-14T00:34:39.093Z,0
2018-03-14T00:35:41.002Z,0
2018-03-14T00:36:42.348Z,0
2018-03-14T00:37:44.358Z,0
2018-03-14T00:38:49.302Z,0
2018-03-14T00:39:51.346Z,0
2018-03-14T00:40:53.464Z,0
2018-03-14T00:41:55.491Z,0
2018-03-14T00:42:58.306Z,0
2018-03-14T00:43:59.302Z,0
2018-03-14T00:45:00.655Z,0
2018-03-14T00:46:01.955Z,0
2018-03-14T00:47:03.338Z,0
2018-03-14T00:48:04.687Z,0
2018-03-14T00:49:08.880Z,0
2018-03-14T00:50:10.980Z,0
2018-03-14T00:51:12.329Z,0
2018-03-14T00:52:13.685Z,0
2018-03-14T00:53:15.963Z,0
2018-03-14T00:54:17.807Z,0
2018-03-14T00:55:19.261Z,0
2018-03-14T00:56:21.359Z,0
2018-03-14T00:57:22.704Z,0
2018-03-14T00:58:25.509Z,0
2018-03-14T00:59:28.388Z,0
2018-03-14T01:00:30.307Z,0
2018-03-14T01:01:32.352Z,0
2018-03-14T01:02:34.461Z,0
2018-03-14T01:03:37.678Z,0
2018-03-14T01:04:39.662Z,0
2018-03-14T01:05:41.806Z,0
2018-03-14T01:06:42.818Z,0
2018-03-14T01:07:44.579Z,0
2018-03-14T01:08:46.898Z,0
2018-03-14T01:09:48.241Z,0
2018-03-14T01:10:50.132Z,0
2018-03-14T01:11:52.152Z,0
2018-03-14T01:12:55.822Z,0
2018-03-14T01:13:59.018Z,0
2018-03-14T01:15:02.310Z,0
2018-03-14T01:16:04.312Z,0
2018-03-14T01:17:05.667Z,0
2018-03-14T01:18:07.978Z,0
2018-03-14T01:19:10.811Z,0
2018-03-14T01:20:12.971Z,0
2018-03-14T01:21:15.166Z,0
2018-03-14T01:22:17.931Z,0
2018-03-14T01:23:19.913Z,0
2018-03-14T01:24:21.896Z,0
2018-03-14T01:25:23.811Z,0
2018-03-14T01:26:24.553Z,0
2018-03-14T01:27:26.825Z,0
2018-03-14T01:28:28.168Z,0
2018-03-14T01:29:31.897Z,0
2018-03-14T01:30:33.248Z,0
2018-03-14T01:31:35.316Z,0
2018-03-14T01:32:36.663Z,0
2018-03-14T01:33:40.047Z,0
2018-03-14T01:34:42.135Z,0
2018-03-14T01:35:44.151Z,0
2018-03-14T01:36:45.501Z,0
2018-03-14T01:37:46.856Z,0
2018-03-14T01:38:48.205Z,0
2018-03-14T01:39:49.554Z,0
2018-03-14T01:40:50.911Z,0
2018-03-14T01:41:52.839Z,0
2018-03-14T01:42:54.188Z,0
2018-03-14T01:43:56.935Z,0
2018-03-14T01:44:59.611Z,0
2018-03-14T01:46:00.947Z,0
2018-03-14T01:47:03.853Z,0
2018-03-14T01:48:05.201Z,0
2018-03-14T01:49:06.552Z,0
2018-03-14T01:50:07.890Z,0
2018-03-14T01:51:09.289Z,0
2018-03-14T01:52:11.223Z,0
2018-03-14T01:53:12.570Z,0
2018-03-14T01:54:13.922Z,0
2018-03-14T01:55:15.272Z,0
2018-03-14T01:56:17.202Z,0
2018-03-14T01:57:19.488Z,0
2018-03-14T01:58:20.836Z,0
2018-03-14T01:59:22.184Z,0
2018-03-14T02:00:23.522Z,0
2018-03-14T02:01:25.463Z,0
2018-03-14T02:02:27.778Z,0
2018-03-14T02:03:29.127Z,0
2018-03-14T02:04:31.186Z,0
2018-03-14T02:05:32.530Z,0
2018-03-14T02:06:33.909Z,0
2018-03-14T02:07:35.831Z,0
2018-03-14T02:08:37.442Z,0
2018-03-14T02:09:40.321Z,0
2018-03-14T02:10:40.826Z,0
2018-03-14T02:11:42.168Z,0
2018-03-14T02:12:43.520Z,0
2018-03-14T02:13:44.862Z,0
2018-03-14T02:14:46.210Z,0
2018-03-14T02:15:48.955Z,0
2018-03-14T02:16:50.315Z,0
2018-03-14T02:17:52.453Z,0
2018-03-14T02:18:53.797Z,0
2018-03-14T02:19:55.174Z,0
2018-03-14T02:20:57.356Z,0
2018-03-14T02:21:58.700Z,0
2018-03-14T02:23:00.045Z,0
2018-03-14T02:24:01.402Z,0
2018-03-14T02:25:02.750Z,0
2018-03-14T02:26:04.897Z,0
2018-03-14T02:27:06.251Z,0
2018-03-14T02:28:07.599Z,0
2018-03-14T02:29:09.868Z,0
2018-03-14T02:30:11.218Z,0
2018-03-14T02:31:13.006Z,0
2018-03-14T02:32:14.352Z,0
2018-03-14T02:33:15.704Z,0
2018-03-14T02:34:17.676Z,0
2018-03-14T02:35:19.965Z,0
2018-03-14T02:36:22.189Z,0
2018-03-14T02:37:23.537Z,0
2018-03-14T02:38:26.215Z,0
2018-03-14T02:39:27.571Z,0
2018-03-14T02:40:29.827Z,0
2018-03-14T02:41:30.236Z,0
2018-03-14T02:42:32.437Z,0
2018-03-14T02:43:35.334Z,0
2018-03-14T02:44:35.769Z,0
2018-03-14T02:45:38.451Z,0
2018-03-14T02:46:40.697Z,0
2018-03-14T02:47:43.205Z,0
2018-03-14T02:48:44.558Z,0
2018-03-14T02:49:45.907Z,0
2018-03-14T02:50:47.246Z,0
2018-03-14T02:51:48.599Z,0
2018-03-14T02:52:49.948Z,0
2018-03-14T02:53:51.884Z,0
2018-03-14T02:54:54.876Z,0
2018-03-14T02:55:56.225Z,0
2018-03-14T02:56:57.590Z,0
2018-03-14T02:57:58.936Z,0
2018-03-14T02:59:00.287Z,0
2018-03-14T03:00:01.636Z,0
2018-03-14T03:01:04.516Z,0
2018-03-14T03:02:05.860Z,0
2018-03-14T03:03:07.196Z,0
2018-03-14T03:04:08.553Z,0
2018-03-14T03:05:09.900Z,0
2018-03-14T03:06:11.252Z,0
2018-03-14T03:07:12.618Z,0
2018-03-14T03:08:13.963Z,0
2018-03-14T03:09:15.312Z,0
2018-03-14T03:10:16.656Z,0
2018-03-14T03:11:18.005Z,0
2018-03-14T03:12:19.348Z,0
2018-03-14T03:13:20.697Z,0
2018-03-14T03:14:22.060Z,0
2018-03-14T03:15:23.403Z,0
2018-03-14T03:16:24.742Z,0
2018-03-14T03:17:26.095Z,0
2018-03-14T03:18:27.477Z,0
2018-03-14T03:19:28.824Z,0
2018-03-14T03:20:30.182Z,0
2018-03-14T03:21:32.335Z,0
2018-03-14T03:22:32.910Z,0
2018-03-14T03:23:34.257Z,0
2018-03-14T03:24:35.605Z,0
2018-03-14T03:25:36.957Z,0
2018-03-14T03:26:38.309Z,0
2018-03-14T03:27:39.657Z,0
2018-03-14T03:28:41.077Z,0
2018-03-14T03:29:43.896Z,0
2018-03-14T03:30:45.250Z,0
2018-03-14T03:31:47.838Z,0
2018-03-14T03:32:49.186Z,0
2018-03-14T03:33:50.535Z,0
2018-03-14T03:34:51.883Z,0
2018-03-14T03:35:53.262Z,0
2018-03-14T03:36:54.619Z,0
2018-03-14T03:37:56.672Z,0
2018-03-14T03:38:58.559Z,0
2018-03-14T03:39:59.900Z,0
2018-03-14T03:41:01.993Z,0
2018-03-14T03:42:03.375Z,0
2018-03-14T03:43:04.728Z,0
2018-03-14T03:44:06.084Z,0
2018-03-14T03:45:07.429Z,0
2018-03-14T03:46:09.552Z,0
2018-03-14T03:47:11.404Z,0
2018-03-14T03:48:13.402Z,0
2018-03-14T03:49:14.736Z,0
2018-03-14T03:50:16.091Z,0
2018-03-14T03:51:17.427Z,0
2018-03-14T03:52:18.779Z,0
2018-03-14T03:53:20.877Z,0
2018-03-14T03:54:22.227Z,0
2018-03-14T03:55:23.575Z,0
2018-03-14T03:56:25.442Z,0
2018-03-14T03:57:26.807Z,0
2018-03-14T03:58:28.152Z,0
2018-03-14T03:59:30.345Z,0
2018-03-14T04:00:30.884Z,0
2018-03-14T04:01:32.236Z,0
2018-03-14T04:02:34.343Z,0
2018-03-14T04:03:35.847Z,0
2018-03-14T04:04:36.446Z,0
2018-03-14T04:05:38.808Z,0
2018-03-14T04:06:40.956Z,0
2018-03-14T04:07:43.738Z,0
2018-03-14T04:08:46.122Z,0
2018-03-14T04:09:47.531Z,0
2018-03-14T04:10:48.918Z,0
2018-03-14T04:11:50.245Z,0
2018-03-14T04:12:52.244Z,0
2018-03-14T04:13:55.177Z,0
2018-03-14T04:14:57.154Z,0
2018-03-14T04:15:58.518Z,0
2018-03-14T04:16:59.870Z,0
2018-03-14T04:18:01.219Z,0
2018-03-14T04:19:02.577Z,0
2018-03-14T04:20:05.279Z,0
2018-03-14T04:21:06.654Z,0
2018-03-14T04:22:07.988Z,0
2018-03-14T04:23:09.346Z,0
2018-03-14T04:24:10.694Z,0
2018-03-14T04:25:12.043Z,0
2018-03-14T04:26:13.399Z,0
2018-03-14T04:27:14.748Z,0
2018-03-14T04:28:16.107Z,0
2018-03-14T04:29:17.537Z,0
2018-03-14T04:30:18.883Z,0
2018-03-14T04:31:20.224Z,0
2018-03-14T04:32:21.573Z,0
2018-03-14T04:33:22.931Z,0
2018-03-14T04:34:24.936Z,0
2018-03-14T04:35:27.353Z,0
2018-03-14T04:36:27.885Z,0
2018-03-14T04:37:30.237Z,0
2018-03-14T04:38:32.581Z,0
2018-03-14T04:39:34.019Z,0
2018-03-14T04:40:35.417Z,0
2018-03-14T04:41:36.798Z,0
2018-03-14T04:42:39.576Z,0
2018-03-14T04:43:41.650Z,0
2018-03-14T04:44:43.059Z,0
2018-03-14T04:45:45.209Z,0
2018-03-14T04:46:47.416Z,0
2018-03-14T04:47:50.070Z,0
2018-03-14T04:48:52.328Z,0
2018-03-14T04:49:54.240Z,0
2018-03-14T04:50:55.583Z,0
2018-03-14T04:51:57.779Z,0
2018-03-14T04:52:59.774Z,0
2018-03-14T04:54:01.730Z,0
2018-03-14T04:55:03.561Z,0
2018-03-14T04:56:05.758Z,0
2018-03-14T04:57:07.150Z,0
2018-03-14T04:58:09.357Z,0
2018-03-14T04:59:10.373Z,0
2018-03-14T05:00:11.784Z,0
2018-03-14T05:01:14.152Z,0
2018-03-14T05:02:16.430Z,0
2018-03-14T05:03:19.544Z,0
2018-03-14T05:04:21.094Z,0
2018-03-14T05:05:22.460Z,0
2018-03-14T05:06:23.855Z,0
2018-03-14T05:07:25.271Z,0
2018-03-14T05:08:26.674Z,0
2018-03-14T05:09:28.069Z,0
2018-03-14T05:10:29.432Z,4
2018-03-14T05:11:33.904Z,4
2018-03-14T05:12:35.461Z,4
2018-03-14T05:13:36.811Z,0
2018-03-14T05:14:38.171Z,4
2018-03-14T05:15:40.311Z,4
2018-03-14T05:16:42.529Z,4
2018-03-14T05:17:44.858Z,8
2018-03-14T05:18:46.031Z,8
2018-03-14T05:19:49.010Z,8
2018-03-14T05:20:51.541Z,12
2018-03-14T05:21:52.916Z,8
2018-03-14T05:22:54.271Z,12
2018-03-14T05:23:55.628Z,16
2018-03-14T05:24:56.991Z,20
2018-03-14T05:25:58.354Z,16
2018-03-14T05:27:00.365Z,24
2018-03-14T05:28:01.718Z,24
2018-03-14T05:29:03.085Z,32
2018-03-14T05:30:04.472Z,40
2018-03-14T05:31:06.684Z,52
2018-03-14T05:32:08.023Z,64
2018-03-14T05:33:09.380Z,84
2018-03-14T05:34:10.727Z,96
2018-03-14T05:35:12.077Z,112
2018-03-14T05:36:13.443Z,128
2018-03-14T05:37:16.132Z,144
2018-03-14T05:38:17.501Z,156
2018-03-14T05:39:18.855Z,168
2018-03-14T05:40:20.198Z,180
2018-03-14T05:41:21.680Z,188
2018-03-14T05:42:23.031Z,204
2018-03-14T05:43:27.392Z,224
2018-03-14T05:44:32.904Z,244
2018-03-14T05:45:37.290Z,272
2018-03-14T05:46:41.036Z,300
2018-03-14T05:47:45.872Z,336
2018-03-14T05:48:46.471Z,372
2018-03-14T05:49:48.432Z,408
2018-03-14T05:50:49.810Z,448
2018-03-14T05:51:52.712Z,492
2018-03-14T05:52:55.255Z,540
2018-03-14T05:53:57.334Z,600
2018-03-14T05:54:59.236Z,660
2018-03-14T05:56:01.540Z,700
2018-03-14T05:57:04.341Z,744
2018-03-14T05:58:08.010Z,804
2018-03-14T05:59:09.873Z,860
2018-03-14T06:00:11.252Z,912
2018-03-14T06:01:13.511Z,968
2018-03-14T06:02:14.855Z,1056
2018-03-14T06:03:16.206Z,1132
2018-03-14T06:04:19.158Z,1176
2018-03-14T06:05:20.544Z,1232
2018-03-14T06:06:21.893Z,1328
2018-03-14T06:07:23.930Z,1320
2018-03-14T06:08:25.280Z,1296
2018-03-14T06:09:28.869Z,1248
2018-03-14T06:10:29.256Z,1216
2018-03-14T06:11:30.600Z,1196
2018-03-14T06:12:31.955Z,1192
2018-03-14T06:13:33.397Z,1208
2018-03-14T06:14:34.741Z,1300
2018-03-14T06:15:36.095Z,1396
2018-03-14T06:16:37.449Z,1484
2018-03-14T06:17:38.831Z,1548
2018-03-14T06:18:40.178Z,1600
2018-03-14T06:19:41.541Z,1660
2018-03-14T06:20:42.886Z,1728
2018-03-14T06:21:45.016Z,1800
2018-03-14T06:22:46.360Z,1928
2018-03-14T06:23:47.716Z,2140
2018-03-14T06:24:50.598Z,2296
2018-03-14T06:25:53.475Z,2408
2018-03-14T06:26:54.836Z,2472
2018-03-14T06:27:56.742Z,2552
2018-03-14T06:28:59.225Z,2708
2018-03-14T06:30:01.371Z,2820
2018-03-14T06:31:02.727Z,2904
2018-03-14T06:32:05.869Z,3044
2018-03-14T06:33:08.474Z,3164
2018-03-14T06:34:09.809Z,3256
2018-03-14T06:35:13.375Z,3380
2018-03-14T06:36:13.339Z,3500
2018-03-14T06:37:15.266Z,3604
2018-03-14T06:38:17.193Z,3712
2018-03-14T06:39:19.437Z,3820
2018-03-14T06:40:21.556Z,4032
2018-03-14T06:41:23.777Z,4024
2018-03-14T06:42:26.673Z,4040
2018-03-14T06:43:28.895Z,4020
2018-03-14T06:44:31.196Z,4052
2018-03-14T06:45:32.552Z,4108
2018-03-14T06:46:33.938Z,4248
2018-03-14T06:47:35.290Z,4420
2018-03-14T06:48:37.523Z,4612
2018-03-14T06:49:38.877Z,4924
2018-03-14T06:50:40.785Z,5232
2018-03-14T06:51:42.724Z,5284
2018-03-14T06:52:44.646Z,5432
2018-03-14T06:53:48.036Z,5656
2018-03-14T06:54:49.390Z,5792
2018-03-14T06:55:50.752Z,6000
2018-03-14T06:56:53.915Z,6272
2018-03-14T06:57:55.263Z,6464
2018-03-14T06:58:57.086Z,6688
2018-03-14T06:59:59.241Z,6892
2018-03-14T07:01:00.603Z,7180
2018-03-14T07:02:03.787Z,7472
2018-03-14T07:03:05.896Z,7716
2018-03-14T07:04:08.877Z,7792
2018-03-14T07:05:10.176Z,7664
2018-03-14T07:06:11.526Z,7672
2018-03-14T07:07:13.771Z,7832
2018-03-14T07:08:15.771Z,8032
2018-03-14T07:09:18.039Z,7888
2018-03-14T07:10:20.985Z,7784
2018-03-14T07:11:22.338Z,7800
2018-03-14T07:12:23.697Z,8308
2018-03-14T07:13:26.411Z,8828
2018-03-14T07:14:27.765Z,9448
2018-03-14T07:15:29.773Z,9776
2018-03-14T07:16:32.892Z,9940
2018-03-14T07:17:33.305Z,10536
2018-03-14T07:18:34.669Z,10908
2018-03-14T07:19:36.978Z,11240
2018-03-14T07:20:40.651Z,11452
2018-03-14T07:21:42.881Z,11488
2018-03-14T07:22:44.985Z,11744
2018-03-14T07:23:46.885Z,11780
2018-03-14T07:24:47.657Z,11792
2018-03-14T07:25:50.666Z,11680
2018-03-14T07:26:52.724Z,11188
2018-03-14T07:27:54.086Z,10388
2018-03-14T07:28:57.035Z,9416
2018-03-14T07:29:59.030Z,8656
2018-03-14T07:31:00.395Z,7920
2018-03-14T07:32:02.499Z,7740
2018-03-14T07:33:04.552Z,8248
2018-03-14T07:34:06.495Z,8760
2018-03-14T07:35:10.051Z,9528
2018-03-14T07:36:12.134Z,10620
2018-03-14T07:37:13.492Z,11788
2018-03-14T07:38:14.858Z,12864
2018-03-14T07:39:16.223Z,13636
2018-03-14T07:40:19.386Z,13756
2018-03-14T07:41:21.586Z,13880
2018-03-14T07:42:23.666Z,14108
2018-03-14T07:43:25.570Z,14664
2018-03-14T07:44:26.921Z,15004
2018-03-14T07:45:30.126Z,14748
2018-03-14T07:46:32.221Z,14820
2018-03-14T07:47:35.966Z,15900
2018-03-14T07:48:37.340Z,15484
2018-03-14T07:49:39.365Z,16364
2018-03-14T07:50:40.736Z,16852
2018-03-14T07:51:42.125Z,17112
2018-03-14T07:52:44.307Z,17856
2018-03-14T07:53:46.212Z,18912
2018-03-14T07:54:47.566Z,25312
2018-03-14T07:55:49.753Z,19616
2018-03-14T07:56:51.854Z,21376
2018-03-14T07:57:53.714Z,19296
2018-03-14T07:58:55.933Z,20960
2018-03-14T07:59:58.122Z,18432
2018-03-14T08:00:59.496Z,19072
2018-03-14T08:02:00.851Z,20064
2018-03-14T08:03:02.227Z,21696
2018-03-14T08:04:03.617Z,22080
2018-03-14T08:05:04.967Z,22912
2018-03-14T08:06:08.216Z,23136
2018-03-14T08:07:11.398Z,23200
2018-03-14T08:08:11.993Z,25280
2018-03-14T08:09:14.245Z,22464
2018-03-14T08:10:16.553Z,22208
2018-03-14T08:11:17.905Z,22880
2018-03-14T08:12:20.614Z,24224
2018-03-14T08:13:22.985Z,22816
2018-03-14T08:14:25.161Z,22304
2018-03-14T08:15:28.953Z,20448
2018-03-14T08:16:34.396Z,18880
2018-03-14T08:17:34.826Z,18016
2018-03-14T08:18:37.060Z,16916
2018-03-14T08:19:39.263Z,16232
2018-03-14T08:20:40.627Z,15360
2018-03-14T08:21:42.703Z,15060
2018-03-14T08:22:44.075Z,14912
2018-03-14T08:23:45.438Z,15696
2018-03-14T08:24:46.807Z,17520
2018-03-14T08:25:48.154Z,20160
2018-03-14T08:26:51.455Z,22656
2018-03-14T08:27:52.860Z,24480
2018-03-14T08:28:54.950Z,24544
2018-03-14T08:29:56.313Z,24960
2018-03-14T08:30:59.483Z,19648
2018-03-14T08:32:00.851Z,17792
2018-03-14T08:33:02.447Z,15740
2018-03-14T08:34:04.979Z,13988
2018-03-14T08:35:07.235Z,13528
2018-03-14T08:36:08.870Z,14324
2018-03-14T08:37:11.545Z,15428
2018-03-14T08:38:13.652Z,16420
2018-03-14T08:39:15.080Z,17148
2018-03-14T08:40:17.160Z,18432
2018-03-14T08:41:19.905Z,19840
2018-03-14T08:42:20.847Z,20768
2018-03-14T08:43:22.224Z,20864
2018-03-14T08:44:23.700Z,20704
2018-03-14T08:45:26.031Z,20576
2018-03-14T08:46:28.111Z,20640
2018-03-14T08:47:30.126Z,20960
2018-03-14T08:48:31.620Z,21184
2018-03-14T08:49:33.560Z,21184
2018-03-14T08:50:35.010Z,21696
2018-03-14T08:51:37.410Z,21920
2018-03-14T08:52:38.095Z,21824
2018-03-14T08:53:40.411Z,22272
2018-03-14T08:54:41.015Z,22720
2018-03-14T08:55:42.434Z,22944
2018-03-14T08:56:43.827Z,24032
2018-03-14T08:57:45.378Z,25376
2018-03-14T08:58:46.914Z,24384
2018-03-14T08:59:48.438Z,23584
2018-03-14T09:00:50.074Z,23296
2018-03-14T09:01:52.526Z,23872
2018-03-14T09:02:53.923Z,30496
2018-03-14T09:03:55.358Z,44640
2018-03-14T09:04:57.409Z,38624
2018-03-14T09:06:00.455Z,36800
2018-03-14T09:07:01.977Z,42464
2018-03-14T09:08:03.835Z,45984
2018-03-14T09:09:06.118Z,40672
2018-03-14T09:10:09.538Z,49376
2018-03-14T09:11:11.900Z,32448
2018-03-14T09:12:13.259Z,36576
2018-03-14T09:13:15.364Z,25280
2018-03-14T09:14:17.530Z,27552
2018-03-14T09:15:19.297Z,49952
2018-03-14T09:16:20.898Z,45472
2018-03-14T09:17:22.351Z,36960
2018-03-14T09:18:23.727Z,27872
2018-03-14T09:19:26.107Z,23680
2018-03-14T09:20:28.408Z,19008
2018-03-14T09:21:29.854Z,17660
2018-03-14T09:22:31.537Z,17076
2018-03-14T09:23:34.457Z,16980
2018-03-14T09:24:36.956Z,15420
2018-03-14T09:25:39.252Z,15776
2018-03-14T09:26:41.326Z,18624
2018-03-14T09:27:43.504Z,24064
2018-03-14T09:28:46.324Z,66816
2018-03-14T09:29:47.725Z,61376
2018-03-14T09:30:50.638Z,58208
2018-03-14T09:31:52.042Z,53632
2018-03-14T09:32:54.463Z,50720
2018-03-14T09:33:56.756Z,48832
2018-03-14T09:34:59.107Z,50528
2018-03-14T09:36:00.633Z,47200
2018-03-14T09:37:02.225Z,51168
2018-03-14T09:38:03.923Z,52800
2018-03-14T09:39:06.324Z,49792
2018-03-14T09:40:09.919Z,30560
2018-03-14T09:41:11.204Z,20960
2018-03-14T09:42:13.754Z,19104
2018-03-14T09:43:16.071Z,17216
2018-03-14T09:44:19.056Z,16048
2018-03-14T09:45:21.212Z,14440
2018-03-14T09:46:23.653Z,13948
2018-03-14T09:47:26.673Z,13868
2018-03-14T09:48:28.087Z,14412
2018-03-14T09:49:29.582Z,15816
2018-03-14T09:50:31.028Z,18976
2018-03-14T09:51:34.210Z,23808
2018-03-14T09:52:35.612Z,43936
2018-03-14T09:53:37.277Z,54848
2018-03-14T09:54:40.076Z,51584
2018-03-14T09:55:41.750Z,35968
2018-03-14T09:56:43.405Z,27456
2018-03-14T09:57:46.451Z,26464
2018-03-14T09:58:49.804Z,26592
2018-03-14T09:59:52.962Z,24160
2018-03-14T10:00:54.338Z,21408
2018-03-14T10:01:56.125Z,20160
2018-03-14T10:02:57.990Z,20960
2018-03-14T10:03:59.496Z,21088
2018-03-14T10:05:00.891Z,21824
2018-03-14T10:06:04.590Z,21248
2018-03-14T10:07:06.200Z,17888
2018-03-14T10:08:07.694Z,16592
2018-03-14T10:09:11.440Z,15744
2018-03-14T10:10:12.145Z,14724
2018-03-14T10:11:14.053Z,14164
2018-03-14T10:12:16.951Z,14072
2018-03-14T10:13:19.175Z,14960
2018-03-14T10:14:20.896Z,17372
2018-03-14T10:15:23.209Z,48640
2018-03-14T10:16:25.035Z,43200
2018-03-14T10:17:26.635Z,42528
2018-03-14T10:18:29.936Z,42272
2018-03-14T10:19:32.103Z,45024
2018-03-14T10:20:33.580Z,43104
2018-03-14T10:21:35.739Z,43648
2018-03-14T10:22:38.641Z,46816
2018-03-14T10:23:40.070Z,50304
2018-03-14T10:24:42.105Z,50112
2018-03-14T10:25:45.347Z,48416
2018-03-14T10:26:47.625Z,49536
2018-03-14T10:27:50.034Z,52768
2018-03-14T10:28:53.513Z,56928
2018-03-14T10:29:55.866Z,49056
2018-03-14T10:30:58.105Z,48448
2018-03-14T10:31:59.696Z,39904
2018-03-14T10:33:02.712Z,49728
2018-03-14T10:34:05.032Z,45760
2018-03-14T10:35:07.748Z,35392
2018-03-14T10:36:09.167Z,60608
2018-03-14T10:37:11.168Z,29120
2018-03-14T10:38:13.746Z,26784
2018-03-14T10:39:15.230Z,28128
2018-03-14T10:40:19.582Z,27328
2018-03-14T10:41:22.016Z,25664
2018-03-14T10:42:24.738Z,22592
2018-03-14T10:43:27.012Z,21664
2018-03-14T10:44:29.393Z,21984
2018-03-14T10:45:31.696Z,21216
2018-03-14T10:46:34.956Z,18784
2018-03-14T10:47:36.311Z,20128
2018-03-14T10:48:37.732Z,22880
2018-03-14T10:49:39.955Z,28224
2018-03-14T10:50:41.314Z,81056
2018-03-14T10:51:43.780Z,75840
2018-03-14T10:52:45.242Z,75712
2018-03-14T10:53:47.470Z,71680
2018-03-14T10:54:49.827Z,68256
2018-03-14T10:55:52.258Z,41568
2018-03-14T10:56:54.228Z,72576
2018-03-14T10:57:56.569Z,82048
2018-03-14T10:58:58.598Z,79616
2018-03-14T11:00:00.024Z,79392
2018-03-14T11:01:01.939Z,80128
2018-03-14T11:02:04.425Z,80448
2018-03-14T11:03:06.666Z,84704
2018-03-14T11:04:08.847Z,87072
2018-03-14T11:05:10.966Z,86560
2018-03-14T11:06:12.731Z,84416
2018-03-14T11:07:15.587Z,23264
2018-03-14T11:08:17.986Z,25888
2018-03-14T11:09:19.415Z,88928
2018-03-14T11:10:21.418Z,30912
2018-03-14T11:11:23.786Z,59680
2018-03-14T11:12:26.599Z,93568
2018-03-14T11:13:28.848Z,91744
2018-03-14T11:14:30.262Z,91680
2018-03-14T11:15:33.224Z,93856
2018-03-14T11:16:34.863Z,95328
2018-03-14T11:17:36.905Z,99136
2018-03-14T11:18:38.442Z,38784
2018-03-14T11:19:41.684Z,79392
2018-03-14T11:20:43.870Z,93216
2018-03-14T11:21:45.330Z,54400
2018-03-14T11:22:48.637Z,31296
2018-03-14T11:23:50.962Z,86240
2018-03-14T11:24:52.097Z,63424
2018-03-14T11:25:55.154Z,33312
2018-03-14T11:26:57.637Z,33600
2018-03-14T11:27:59.108Z,32448
2018-03-14T11:29:01.213Z,39040
2018-03-14T11:30:04.364Z,46592
2018-03-14T11:31:06.675Z,75392
2018-03-14T11:32:09.530Z,30464
2018-03-14T11:33:12.263Z,24896
2018-03-14T11:34:13.808Z,23488
2018-03-14T11:35:16.272Z,22848
2018-03-14T11:36:19.987Z,22368
2018-03-14T11:37:21.052Z,22528
2018-03-14T11:38:23.089Z,21824
2018-03-14T11:39:24.667Z,22784
2018-03-14T11:40:26.860Z,22720
2018-03-14T11:41:28.836Z,21920
2018-03-14T11:42:30.361Z,21216
2018-03-14T11:43:31.789Z,18264
2018-03-14T11:44:34.508Z,17472
2018-03-14T11:45:37.555Z,17116
2018-03-14T11:46:40.042Z,17780
2018-03-14T11:47:43.067Z,17668
2018-03-14T11:48:45.185Z,16780
2018-03-14T11:49:46.705Z,16580
2018-03-14T11:50:48.221Z,18068
2018-03-14T11:51:49.757Z,21152
2018-03-14T11:52:53.633Z,25632
2018-03-14T11:53:55.186Z,29216
2018-03-14T11:54:57.613Z,30080
2018-03-14T11:55:59.823Z,31424
2018-03-14T11:57:01.368Z,33600
2018-03-14T11:58:02.884Z,35040
2018-03-14T11:59:11.773Z,36384
2018-03-14T12:00:14.059Z,36608
2018-03-14T12:01:15.967Z,36800
2018-03-14T12:02:18.266Z,36480
2018-03-14T12:03:20.363Z,36928
2018-03-14T12:04:21.766Z,39328
2018-03-14T12:05:23.954Z,38944
2018-03-14T12:06:26.676Z,48608
2018-03-14T12:07:29.368Z,106144
2018-03-14T12:08:31.493Z,104736
2018-03-14T12:09:35.924Z,98496
2018-03-14T12:10:37.497Z,35104
2018-03-14T12:11:39.829Z,32160
2018-03-14T12:12:42.289Z,32224
2018-03-14T12:13:43.716Z,58592
2018-03-14T12:14:45.859Z,48256
2018-03-14T12:15:47.385Z,63808
2018-03-14T12:16:48.781Z,87424
2018-03-14T12:17:51.003Z,47136
2018-03-14T12:18:53.328Z,87616
2018-03-14T12:19:55.125Z,85440
2018-03-14T12:20:57.807Z,69728
2018-03-14T12:22:00.738Z,67200
2018-03-14T12:23:02.961Z,51584
2018-03-14T12:24:04.396Z,84672
2018-03-14T12:25:06.678Z,65952
2018-03-14T12:26:08.736Z,84160
2018-03-14T12:27:12.568Z,35168
2018-03-14T12:28:15.260Z,30624
2018-03-14T12:29:16.716Z,74496
2018-03-14T12:30:19.683Z,72608
2018-03-14T12:31:22.558Z,74752
2018-03-14T12:32:23.993Z,64704
2018-03-14T12:33:27.220Z,78240
2018-03-14T12:34:29.926Z,78560
2018-03-14T12:35:32.504Z,78400
2018-03-14T12:36:36.036Z,77952
2018-03-14T12:37:38.491Z,77184
2018-03-14T12:38:40.907Z,77888
2018-03-14T12:39:42.834Z,83136
2018-03-14T12:40:44.992Z,79104
2018-03-14T12:41:47.562Z,70912
2018-03-14T12:42:50.707Z,32736
2018-03-14T12:43:52.665Z,29696
2018-03-14T12:44:54.084Z,29152
2018-03-14T12:45:57.034Z,24224
2018-03-14T12:46:59.360Z,24384
2018-03-14T12:48:01.728Z,26272
2018-03-14T12:49:03.418Z,27104
2018-03-14T12:50:04.834Z,69184
2018-03-14T12:51:09.013Z,67200
2018-03-14T12:52:13.010Z,51872
2018-03-14T12:53:14.938Z,41376
2018-03-14T12:54:16.773Z,57440
2018-03-14T12:55:19.109Z,58592
2018-03-14T12:56:20.591Z,26720
2018-03-14T12:57:22.979Z,22656
2018-03-14T12:58:24.523Z,21184
2018-03-14T12:59:27.748Z,35072
2018-03-14T13:00:30.922Z,40224
2018-03-14T13:01:32.528Z,28896
2018-03-14T13:02:35.672Z,64512
2018-03-14T13:03:38.125Z,62784
2018-03-14T13:04:40.192Z,62752
2018-03-14T13:05:43.542Z,62496
2018-03-14T13:06:46.727Z,64896
2018-03-14T13:07:51.199Z,65856
2018-03-14T13:08:53.512Z,64800
2018-03-14T13:09:57.006Z,63552
2018-03-14T13:10:58.377Z,64256
2018-03-14T13:12:00.405Z,63616
2018-03-14T13:13:02.111Z,62752
2018-03-14T13:14:04.558Z,64256
2018-03-14T13:15:06.765Z,68096
2018-03-14T13:16:08.700Z,69152
2018-03-14T13:17:11.753Z,72384
2018-03-14T13:18:16.017Z,74272
2018-03-14T13:19:16.610Z,75904
2018-03-14T13:20:18.055Z,79168
2018-03-14T13:21:20.402Z,80672
2018-03-14T13:22:23.317Z,82976
2018-03-14T13:23:26.067Z,81536
2018-03-14T13:24:28.285Z,78912
2018-03-14T13:25:30.021Z,73632
2018-03-14T13:26:32.868Z,72736
2018-03-14T13:27:35.207Z,68032
2018-03-14T13:28:36.836Z,68768
2018-03-14T13:29:39.033Z,69760
2018-03-14T13:30:42.206Z,77792
2018-03-14T13:31:44.992Z,72288
2018-03-14T13:32:47.583Z,79072
2018-03-14T13:33:49.659Z,78848
2018-03-14T13:34:51.998Z,79296
2018-03-14T13:35:55.370Z,77664
2018-03-14T13:36:58.249Z,74880
2018-03-14T13:38:01.286Z,74656
2018-03-14T13:39:03.057Z,76544
2018-03-14T13:40:06.587Z,74816
2018-03-14T13:41:09.442Z,68544
2018-03-14T13:42:13.339Z,59552
2018-03-14T13:43:15.443Z,30656
2018-03-14T13:44:17.042Z,31104
2018-03-14T13:45:18.456Z,32288
2018-03-14T13:46:19.846Z,34624
2018-03-14T13:47:22.566Z,71296
2018-03-14T13:48:23.984Z,76896
2018-03-14T13:49:26.351Z,77376
2018-03-14T13:50:28.591Z,74400
2018-03-14T13:51:30.170Z,75872
2018-03-14T13:52:34.500Z,74976
2018-03-14T13:53:35.877Z,76800
2018-03-14T13:54:37.293Z,74592
2018-03-14T13:55:38.839Z,74240
2018-03-14T13:56:41.281Z,72352
2018-03-14T13:57:44.770Z,69120
2018-03-14T13:58:46.329Z,30464
2018-03-14T13:59:48.421Z,29504
2018-03-14T14:00:50.770Z,28800
2018-03-14T14:01:53.080Z,28256
2018-03-14T14:02:54.647Z,27264
2018-03-14T14:03:56.945Z,26688
2018-03-14T14:04:59.169Z,26368
2018-03-14T14:06:02.944Z,65632